Time;durP1;ratioP1;P1;durP2;ratioP2;P2;SDS_P1;SDS_P2;PMS_P1;PMS_P2;Temp;Humidity;BMP_temperature;BMP_pressure;BME280_temperature;BME280_humidity;BME280_pressure;Samples;Min_cycle;Max_cycle;Signal;HPM_P1;HPM_P2
2022/01/04 00:01:47;;;;;;;;;;;9.10;99.90;;;;;;4978085;28;20046;-72
2022/01/04 00:04:13;;;;;;;3.05;1.00;;;9.10;99.90;;;;;;4976845;28;19926;-72
2022/01/04 00:06:40;;;;;;;3.53;1.15;;;9.10;99.90;;;;;;4977908;28;20046;-72
2022/01/04 00:09:08;;;;;;;1.52;0.93;;;9.10;99.50;;;;;;4976628;28;20540;-72
2022/01/04 00:14:11;;;;;;;1.27;0.80;;;9.10;99.60;;;;;;4981297;28;20042;-72
2022/01/04 00:16:39;;;;;;;2.10;1.10;;;9.10;99.70;;;;;;4996142;28;20097;-73
2022/01/04 00:19:06;;;;;;;4.28;1.38;;;9.10;99.90;;;;;;4980496;28;20709;-72
2022/01/04 00:21:33;;;;;;;1.73;1.08;;;9.10;99.50;;;;;;4980997;28;20069;-73
2022/01/04 00:24:00;;;;;;;5.80;1.08;;;9.10;99.90;;;;;;4980876;28;20113;-72
2022/01/04 00:26:27;;;;;;;1.23;1.05;;;9.10;99.90;;;;;;4981149;28;20185;-72
2022/01/04 00:28:54;;;;;;;4.05;0.90;;;9.00;99.80;;;;;;4980844;28;20515;-74
2022/01/04 00:31:21;;;;;;;;;;;9.00;99.90;;;;;;4981204;28;20058;-73
2022/01/04 00:33:49;;;;;;;3.22;1.20;;;9.00;99.80;;;;;;4979601;28;20434;-73
2022/01/04 00:36:16;;;;;;;2.78;1.08;;;9.00;99.90;;;;;;4981430;28;20553;-73
2022/01/04 00:38:43;;;;;;;2.55;1.35;;;9.00;99.90;;;;;;4980312;28;20078;-73
2022/01/04 00:41:10;;;;;;;1.75;0.80;;;9.00;99.90;;;;;;4980691;28;20591;-73
2022/01/04 00:43:36;;;;;;;2.25;1.05;;;9.00;99.90;;;;;;4980590;28;20843;-73
2022/01/04 00:46:03;;;;;;;;;;;9.00;99.90;;;;;;4981313;28;20058;-73
2022/01/04 00:50:57;;;;;;;;;;;8.90;99.90;;;;;;4980983;28;20050;-73
2022/01/04 00:53:23;;;;;;;2.90;1.45;;;8.90;99.90;;;;;;4988082;28;19953;-73
2022/01/04 00:55:50;;;;;;;2.83;1.00;;;8.90;99.90;;;;;;4980440;28;20058;-73
2022/01/04 00:58:17;;;;;;;1.45;0.82;;;8.90;99.90;;;;;;4980856;28;20077;-72
2022/01/04 01:00:44;;;;;;;3.30;1.00;;;8.90;99.90;;;;;;4979384;28;20752;-73
2022/01/04 01:03:11;;;;;;;1.70;1.20;;;8.90;99.90;;;;;;4980516;28;20696;-73
2022/01/04 01:05:38;;;;;;;3.63;1.35;;;8.90;99.90;;;;;;4980154;28;20082;-73
2022/01/04 01:08:05;;;;;;;;;;;8.80;99.90;;;;;;4980897;28;20042;-72
2022/01/04 01:10:44;;;;;;;2.90;0.98;;;8.80;99.90;;;;;;4979914;28;19926;-73
2022/01/04 01:13:12;;;;;;;1.67;0.80;;;8.80;99.90;;;;;;4980128;28;20045;-73
2022/01/04 01:15:41;;;;;;;2.30;1.10;;;8.80;99.90;;;;;;4980107;28;20671;-73
2022/01/04 01:18:08;;;;;;;2.75;0.98;;;8.80;99.90;;;;;;4980142;28;20046;-73
2022/01/04 01:20:35;;;;;;;;;;;8.80;99.90;;;;;;4979996;28;20511;-73
2022/01/04 01:23:03;;;;;;;6.03;0.93;;;8.80;99.90;;;;;;4978753;28;19976;-74
2022/01/04 01:25:30;;;;;;;3.63;0.90;;;8.80;99.90;;;;;;4979455;28;20516;-73
2022/01/04 01:27:57;;;;;;;;;;;8.80;99.90;;;;;;4980550;28;20053;-73
2022/01/04 01:30:25;;;;;;;1.45;0.88;;;8.80;99.90;;;;;;4979660;28;19926;-73
2022/01/04 01:32:52;;;;;;;1.60;0.90;;;8.80;99.90;;;;;;4980087;28;20460;-73
2022/01/04 01:35:19;;;;;;;2.05;0.80;;;8.80;99.90;;;;;;4979705;28;20508;-73
2022/01/04 01:37:46;;;;;;;;;;;8.80;99.90;;;;;;4980584;28;20112;-73
2022/01/04 01:40:13;;;;;;;3.33;1.10;;;8.80;99.90;;;;;;4978782;28;19929;-73
2022/01/04 01:42:40;;;;;;;;;;;8.80;99.90;;;;;;4980457;28;20113;-73
2022/01/04 01:45:10;;;;;;;2.65;1.20;;;8.70;99.90;;;;;;4978879;28;19925;-73
2022/01/04 01:47:39;;;;;;;3.97;1.50;;;8.70;99.90;;;;;;4979879;28;20129;-73
2022/01/04 01:50:07;;;;;;;0.88;0.75;;;8.70;99.90;;;;;;4978945;28;20564;-73
2022/01/04 01:52:34;;;;;;;2.63;1.00;;;8.70;99.90;;;;;;4984605;28;20037;-73
2022/01/04 01:55:01;;;;;;;;;;;8.60;99.90;;;;;;4981830;28;20054;-73
2022/01/04 01:57:27;;;;;;;2.38;0.98;;;8.60;99.90;;;;;;4993935;28;20573;-73
2022/01/04 01:59:54;;;;;;;2.85;1.10;;;8.60;99.90;;;;;;4979156;28;20143;-73
2022/01/04 02:02:21;;;;;;;;;;;8.60;99.90;;;;;;4980352;28;20100;-73
2022/01/04 02:04:48;;;;;;;2.42;1.00;;;8.60;99.90;;;;;;4979621;28;20000;-73
2022/01/04 02:07:16;;;;;;;1.83;1.10;;;8.60;99.90;;;;;;4978477;28;20111;-73
2022/01/04 02:09:49;;;;;;;4.60;1.30;;;8.50;99.90;;;;;;4978919;28;20141;-73
2022/01/04 02:12:16;;;;;;;1.50;1.10;;;8.50;99.90;;;;;;4979373;28;20042;-73
2022/01/04 02:14:49;;;;;;;;;;;8.50;99.90;;;;;;4993590;28;20055;-73
2022/01/04 02:17:16;;;;;;;2.70;1.25;;;8.50;99.90;;;;;;4979397;28;19979;-73
2022/01/04 02:19:43;;;;;;;1.10;0.85;;;8.50;99.90;;;;;;4976756;28;20603;-73
2022/01/04 02:22:10;;;;;;;;;;;8.40;99.90;;;;;;4979184;28;20108;-73
2022/01/04 02:24:37;;;;;;;1.58;1.05;;;8.40;99.90;;;;;;4978492;28;19937;-73
2022/01/04 02:27:04;;;;;;;2.30;0.98;;;8.50;99.90;;;;;;4979022;28;20054;-73
2022/01/04 02:29:31;;;;;;;2.03;1.08;;;8.40;99.90;;;;;;4977944;28;20109;-73
2022/01/04 02:31:58;;;;;;;1.58;0.90;;;8.40;99.90;;;;;;4978825;28;20046;-73
2022/01/04 02:34:25;;;;;;;2.45;1.08;;;8.40;99.90;;;;;;4978584;28;20074;-73
2022/01/04 02:36:51;;;;;;;;;;;8.40;99.90;;;;;;4979250;28;20045;-73
2022/01/04 02:39:18;;;;;;;1.40;1.00;;;8.40;99.90;;;;;;4978346;28;20420;-73
2022/01/04 02:41:45;;;;;;;1.20;1.00;;;8.40;99.90;;;;;;4978633;28;20053;-72
2022/01/04 02:44:12;;;;;;;1.55;1.00;;;8.40;99.90;;;;;;4977807;28;20042;-73
2022/01/04 02:46:38;;;;;;;2.92;1.20;;;8.40;99.90;;;;;;4978348;28;20038;-73
2022/01/04 02:49:05;;;;;;;;;;;8.50;99.90;;;;;;4978716;28;20042;-74
2022/01/04 02:51:32;;;;;;;0.90;0.80;;;8.50;99.90;;;;;;4992551;28;19976;-73
2022/01/04 02:53:58;;;;;;;2.10;0.95;;;8.50;99.90;;;;;;4985743;28;20505;-73
2022/01/04 02:56:25;;;;;;;1.40;0.95;;;8.50;99.90;;;;;;4978835;28;20058;-73
2022/01/04 02:58:53;;;;;;;;;;;8.50;99.90;;;;;;4978001;28;20116;-73
2022/01/04 03:01:19;;;;;;;4.35;0.80;;;8.50;99.90;;;;;;4978568;28;19925;-72
2022/01/04 03:03:46;;;;;;;1.88;0.80;;;8.50;99.90;;;;;;4978109;28;20049;-73
2022/01/04 03:06:14;;;;;;;2.42;0.75;;;8.50;99.90;;;;;;4977904;28;20132;-73
2022/01/04 03:08:41;;;;;;;1.75;1.10;;;8.50;99.90;;;;;;4978125;28;20062;-73
2022/01/04 03:11:08;;;;;;;1.85;1.00;;;8.50;99.90;;;;;;4977551;28;20069;-74
2022/01/04 03:13:35;;;;;;;4.43;1.25;;;8.50;99.90;;;;;;4977539;28;20042;-72
2022/01/04 03:16:02;;;;;;;1.90;1.00;;;8.40;99.90;;;;;;4977936;28;20042;-73
2022/01/04 03:18:29;;;;;;;2.47;1.23;;;8.40;99.90;;;;;;4978118;28;20129;-73
2022/01/04 03:20:55;;;;;;;;;;;8.40;99.90;;;;;;4977495;28;20054;-73
2022/01/04 03:23:22;;;;;;;3.85;1.13;;;8.40;99.90;;;;;;4978541;28;19928;-73
2022/01/04 03:25:49;;;;;;;3.95;1.83;;;8.40;99.90;;;;;;4977687;28;20051;-73
2022/01/04 03:28:19;;;;;;;1.90;0.70;;;8.40;99.90;;;;;;4977647;28;20520;-73
2022/01/04 03:30:46;;;;;;;1.60;0.95;;;8.50;99.90;;;;;;4977300;28;20112;-73
2022/01/04 03:33:15;;;;;;;1.23;1.15;;;8.40;99.90;;;;;;4977792;28;20861;-73
2022/01/04 03:35:41;;;;;;;1.23;0.73;;;8.40;99.90;;;;;;4977370;28;20050;-73
2022/01/04 03:38:08;;;;;;;1.23;1.02;;;8.40;99.90;;;;;;4977688;28;20074;-73
2022/01/04 03:40:35;;;;;;;1.02;0.88;;;8.40;99.90;;;;;;4977428;28;20042;-73
2022/01/04 03:43:01;;;;;;;2.88;0.85;;;8.40;99.90;;;;;;4977445;28;20177;-73
2022/01/04 03:45:28;;;;;;;1.60;0.90;;;8.40;99.90;;;;;;4977729;28;20112;-73
2022/01/04 03:47:55;;;;;;;1.90;0.88;;;8.40;99.90;;;;;;4977430;28;20038;-73
2022/01/04 03:50:22;;;;;;;2.75;0.80;;;8.40;99.90;;;;;;4976946;28;20043;-73
2022/01/04 03:52:48;;;;;;;;;;;8.40;99.90;;;;;;4985811;28;20524;-73
2022/01/04 03:55:15;;;;;;;2.17;1.08;;;8.40;99.90;;;;;;4977216;28;19926;-73
2022/01/04 03:57:42;;;;;;;0.50;0.50;;;8.40;99.90;;;;;;4977951;28;20572;-73
2022/01/04 04:00:09;;;;;;;1.77;0.90;;;8.40;99.90;;;;;;4976952;28;20077;-73
2022/01/04 04:02:39;;;;;;;0.70;0.70;;;8.40;99.90;;;;;;4977432;28;20125;-73
2022/01/04 04:05:07;;;;;;;1.67;0.70;;;8.40;99.90;;;;;;4976845;28;20061;-73
2022/01/04 04:07:34;;;;;;;2.58;0.80;;;8.40;99.90;;;;;;4977768;28;20039;-73
2022/01/04 04:10:00;;;;;;;1.60;0.73;;;8.40;99.90;;;;;;4977082;28;20660;-73
2022/01/04 04:12:27;;;;;;;2.80;0.80;;;8.40;99.90;;;;;;4977726;28;20101;-73
2022/01/04 04:14:55;;;;;;;1.40;0.70;;;8.40;99.90;;;;;;4977191;28;20089;-73
2022/01/04 04:17:21;;;;;;;1.10;0.63;;;8.40;99.90;;;;;;4977591;28;20049;-73
2022/01/04 04:19:48;;;;;;;1.13;0.80;;;8.40;99.90;;;;;;4975809;28;20053;-73
2022/01/04 04:22:15;;;;;;;1.15;0.93;;;8.40;99.90;;;;;;4976707;28;20058;-73
2022/01/04 04:24:42;;;;;;;1.42;0.75;;;8.40;99.90;;;;;;4977601;28;20046;-74
2022/01/04 04:27:09;;;;;;;;;;;8.40;99.90;;;;;;4977734;28;20072;-73
2022/01/04 04:29:35;;;;;;;0.90;0.52;;;8.50;99.90;;;;;;4976694;28;19988;-73
2022/01/04 04:32:03;;;;;;;2.78;0.70;;;8.60;99.90;;;;;;4977395;28;20656;-73
2022/01/04 04:34:30;;;;;;;0.57;0.52;;;8.80;99.90;;;;;;4976957;28;20050;-73
2022/01/04 04:36:57;;;;;;;0.57;0.55;;;9.10;99.90;;;;;;4977387;28;20128;-73
2022/01/04 04:39:24;;;;;;;;;;;9.20;99.90;;;;;;4976943;28;20589;-73
2022/01/04 04:41:52;;;;;;;0.52;0.50;;;9.40;99.90;;;;;;4977961;28;19926;-73
2022/01/04 04:44:19;;;;;;;0.63;0.30;;;9.50;99.90;;;;;;4976449;28;20637;-73
2022/01/04 04:46:45;;;;;;;;;;;9.60;99.90;;;;;;4978449;28;20043;-74
2022/01/04 04:49:13;;;;;;;7.68;0.65;;;9.70;99.90;;;;;;4976676;28;19926;-73
2022/01/04 04:51:40;;;;;;;0.50;0.50;;;9.80;99.90;;;;;;4976740;28;20067;-73
2022/01/04 04:54:06;;;;;;;;;;;10.00;99.90;;;;;;4985170;28;20085;-73
2022/01/04 04:56:34;;;;;;;0.30;0.30;;;10.10;99.90;;;;;;4977415;28;19925;-73
2022/01/04 04:59:01;;;;;;;0.40;0.40;;;10.20;99.90;;;;;;4977625;28;20057;-74
2022/01/04 05:01:27;;;;;;;0.82;0.40;;;10.20;99.90;;;;;;4980121;28;20039;-73
2022/01/04 05:03:54;;;;;;;0.50;0.47;;;10.30;99.90;;;;;;4980707;28;20097;-73
2022/01/04 05:06:21;;;;;;;0.98;0.40;;;10.30;99.90;;;;;;4980182;28;20042;-73
2022/01/04 05:08:48;;;;;;;;;;;10.20;99.90;;;;;;4981118;28;20100;-73
2022/01/04 05:11:15;;;;;;;2.47;0.50;;;10.20;99.90;;;;;;4980279;28;19933;-73
2022/01/04 05:13:41;;;;;;;1.30;0.70;;;10.10;99.90;;;;;;4979313;28;20741;-73
2022/01/04 05:16:08;;;;;;;1.40;0.85;;;10.10;99.90;;;;;;4980316;28;20097;-73
2022/01/04 05:18:35;;;;;;;;;;;10.10;99.90;;;;;;4980540;28;20046;-73
2022/01/04 05:21:03;;;;;;;4.63;0.70;;;10.10;99.90;;;;;;4979447;28;20613;-73
2022/01/04 05:23:31;;;;;;;1.00;0.80;;;10.00;99.90;;;;;;4979724;28;20108;-73
2022/01/04 05:25:58;;;;;;;2.80;1.25;;;9.90;99.90;;;;;;4980442;28;20050;-73
2022/01/04 05:28:25;;;;;;;0.95;0.88;;;9.80;99.90;;;;;;4978456;28;20136;-73
2022/01/04 05:30:52;;;;;;;0.80;0.60;;;9.70;99.90;;;;;;4979987;28;20780;-73
2022/01/04 05:33:19;;;;;;;1.42;0.80;;;9.60;99.90;;;;;;4980080;28;20794;-73
2022/01/04 05:35:47;;;;;;;1.00;0.80;;;9.50;99.90;;;;;;4979519;28;20101;-72
2022/01/04 05:38:14;;;;;;;3.83;0.80;;;9.40;99.90;;;;;;4979840;28;20743;-73
2022/01/04 05:40:42;;;;;;;3.05;0.70;;;9.30;99.90;;;;;;4977478;28;20050;-73
2022/01/04 05:43:09;;;;;;;2.35;0.85;;;9.20;99.90;;;;;;4979539;28;20070;-72
2022/01/04 05:45:36;;;;;;;1.05;0.80;;;9.10;99.90;;;;;;4979588;28;20097;-72
2022/01/04 05:48:03;;;;;;;2.35;1.05;;;9.00;99.90;;;;;;4979933;28;20571;-72
2022/01/04 05:50:30;;;;;;;2.17;0.93;;;8.90;99.90;;;;;;4979136;28;20053;-73
2022/01/04 05:52:57;;;;;;;1.60;0.90;;;8.90;99.90;;;;;;4986930;28;20045;-72
2022/01/04 05:55:23;;;;;;;;;;;8.80;99.90;;;;;;4979810;28;20049;-72
2022/01/04 05:57:50;;;;;;;0.70;0.50;;;8.80;99.90;;;;;;4979481;28;20275;-73
2022/01/04 06:00:18;;;;;;;1.42;0.93;;;8.70;99.90;;;;;;4979303;28;20058;-72
2022/01/04 06:02:44;;;;;;;1.30;0.75;;;8.70;99.90;;;;;;4979370;28;20050;-72
2022/01/04 06:05:11;;;;;;;;;;;8.70;99.90;;;;;;4979503;28;20054;-72
2022/01/04 06:07:38;;;;;;;2.92;0.70;;;8.70;99.90;;;;;;4978236;28;20718;-73
2022/01/04 06:10:07;;;;;;;;;;;8.70;99.90;;;;;;4992601;28;20690;-71
2022/01/04 06:15:14;;;;;;;5.20;0.93;;;8.90;99.90;;;;;;4978490;28;20105;-58
2022/01/04 06:17:42;;;;;;;1.42;0.50;;;8.90;99.90;;;;;;4978561;28;20042;-58
2022/01/04 06:20:12;;;;;;;0.93;0.77;;;9.00;99.90;;;;;;4973515;28;20053;-59
2022/01/04 06:22:40;;;;;;;3.20;1.13;;;9.00;99.90;;;;;;4977745;28;20057;-58
2022/01/04 06:25:11;;;;;;;1.58;0.90;;;9.00;99.90;;;;;;4977070;28;20590;-59
2022/01/04 06:27:40;;;;;;;1.15;0.70;;;8.90;99.90;;;;;;4976616;28;20042;-59
2022/01/04 06:30:08;;;;;;;2.08;0.95;;;8.90;99.90;;;;;;4977001;28;20043;-59
2022/01/04 06:32:38;;;;;;;1.48;0.80;;;8.80;99.90;;;;;;4977555;28;20050;-59
2022/01/04 06:35:05;;;;;;;5.13;1.02;;;8.70;99.90;;;;;;4976269;28;20074;-59
2022/01/04 06:37:32;;;;;;;2.35;0.93;;;8.70;99.90;;;;;;4976400;28;20124;-59
2022/01/04 06:39:59;;;;;;;0.98;0.70;;;8.60;99.90;;;;;;4977212;28;20054;-59
2022/01/04 06:42:26;;;;;;;1.27;1.15;;;8.60;99.90;;;;;;4977692;28;20108;-59
2022/01/04 06:44:52;;;;;;;1.80;1.00;;;8.60;99.90;;;;;;4977899;28;20050;-59
2022/01/04 06:47:19;;;;;;;2.45;0.93;;;8.60;99.90;;;;;;4978507;28;20060;-59
2022/01/04 06:49:46;;;;;;;2.22;0.82;;;8.50;99.90;;;;;;4976486;28;20050;-58
2022/01/04 06:52:13;;;;;;;;;;;8.50;99.90;;;;;;4981156;28;20045;-59
2022/01/04 06:54:40;;;;;;;0.45;0.45;;;8.50;99.90;;;;;;4996990;28;19980;-59
2022/01/04 06:57:06;;;;;;;2.38;0.70;;;8.50;99.90;;;;;;4976536;28;20089;-58
2022/01/04 06:59:33;;;;;;;;;;;8.60;99.90;;;;;;4978467;28;20121;-59
2022/01/04 07:02:01;;;;;;;2.83;0.70;;;8.60;99.90;;;;;;4978432;28;19925;-59
2022/01/04 07:04:28;;;;;;;1.50;0.88;;;8.60;99.90;;;;;;4977974;28;20460;-59
2022/01/04 07:06:55;;;;;;;1.48;0.77;;;8.70;99.90;;;;;;4978012;28;20112;-59
2022/01/04 07:09:22;;;;;;;3.15;0.90;;;8.80;99.90;;;;;;4977989;28;20093;-68
2022/01/04 07:11:49;;;;;;;;;;;9.00;99.90;;;;;;4978676;28;20070;-59
2022/01/04 07:14:15;;;;;;;0.50;0.50;;;9.10;99.90;;;;;;4977706;28;20447;-59
2022/01/04 07:16:42;;;;;;;0.90;0.80;;;9.20;99.90;;;;;;4978084;28;20049;-58
2022/01/04 07:19:09;;;;;;;3.95;1.42;;;9.20;99.90;;;;;;4977040;28;20672;-58
2022/01/04 07:21:36;;;;;;;0.40;0.40;;;9.30;99.90;;;;;;4977291;28;20096;-58
2022/01/04 07:24:04;;;;;;;0.70;0.70;;;9.40;99.90;;;;;;4992310;28;20070;-58
2022/01/04 07:26:31;;;;;;;0.40;0.40;;;9.30;99.90;;;;;;4976154;28;20054;-58
2022/01/04 07:28:58;;;;;;;0.50;0.50;;;9.40;99.90;;;;;;4977100;28;20928;-58
2022/01/04 07:31:25;;;;;;;;;;;9.40;99.90;;;;;;4978455;28;20108;-58
2022/01/04 07:33:52;;;;;;;1.90;0.50;;;9.30;99.90;;;;;;4977170;28;20000;-58
2022/01/04 07:36:18;;;;;;;;;;;9.30;99.90;;;;;;4978843;28;20042;-58
2022/01/04 07:38:45;;;;;;;0.88;0.65;;;9.30;99.90;;;;;;4977907;28;20572;-58
2022/01/04 07:41:12;;;;;;;;;;;9.30;99.90;;;;;;4977761;28;20050;-58
2022/01/04 07:43:39;;;;;;;0.30;0.30;;;9.40;99.90;;;;;;4978034;28;20514;-59
2022/01/04 07:46:05;;;;;;;;;;;9.60;99.90;;;;;;4977786;28;20132;-58
2022/01/04 07:48:32;;;;;;;0.25;0.25;;;9.70;99.90;;;;;;4977366;28;19957;-54
2022/01/04 07:50:59;;;;;;;0.38;0.25;;;9.90;99.90;;;;;;4974628;28;20042;-59
2022/01/04 07:53:29;;;;;;;0.68;0.35;;;10.10;99.90;;;;;;4984611;28;20062;-59
2022/01/04 07:55:56;;;;;;;2.10;0.43;;;10.30;99.90;;;;;;4976217;28;20042;-59
2022/01/04 07:58:24;;;;;;;;;;;10.50;99.90;;;;;;4977797;28;20043;-59
2022/01/04 08:00:51;;;;;;;0.68;0.63;;;10.70;99.90;;;;;;4976414;28;19995;-59
2022/01/04 08:03:19;;;;;;;0.40;0.40;;;10.80;99.90;;;;;;4976848;28;20054;-58
2022/01/04 08:05:46;;;;;;;0.77;0.40;;;11.00;99.90;;;;;;4976744;28;20608;-58
2022/01/04 08:08:13;;;;;;;;;;;11.20;99.90;;;;;;4977201;28;20072;-59
2022/01/04 08:10:40;;;;;;;0.63;0.50;;;11.30;99.90;;;;;;4976045;28;19925;-55
2022/01/04 08:13:07;;;;;;;0.40;0.40;;;11.50;99.90;;;;;;4976376;28;20452;-56
2022/01/04 08:15:34;;;;;;;0.40;0.40;;;11.70;99.90;;;;;;4980500;28;20061;-57
2022/01/04 08:18:00;;;;;;;;;;;11.90;99.90;;;;;;4995923;28;20574;-57
2022/01/04 08:20:27;;;;;;;0.50;0.50;;;12.10;99.90;;;;;;4978368;28;19929;-62
2022/01/04 08:22:54;;;;;;;;;;;12.10;99.90;;;;;;4976995;28;20050;-57
2022/01/04 08:25:21;;;;;;;2.83;0.77;;;12.20;99.90;;;;;;4973716;28;19926;-57
2022/01/04 08:27:48;;;;;;;0.45;0.40;;;12.20;99.90;;;;;;4975257;28;20042;-57
2022/01/04 08:30:14;;;;;;;;;;;12.20;99.90;;;;;;4976709;28;20677;-57
2022/01/04 08:32:42;;;;;;;0.30;0.30;;;12.20;99.90;;;;;;4977147;28;19926;-58
2022/01/04 08:35:10;;;;;;;0.40;0.40;;;12.30;99.90;;;;;;4979892;28;20054;-61
2022/01/04 08:37:37;;;;;;;0.93;0.60;;;12.30;99.90;;;;;;4980615;28;20186;-59
2022/01/04 08:40:06;;;;;;;0.70;0.70;;;12.30;99.90;;;;;;4979327;28;20108;-59
2022/01/04 08:42:35;;;;;;;0.60;0.60;;;12.30;99.90;;;;;;4980149;28;20580;-59
2022/01/04 08:45:04;;;;;;;1.00;0.60;;;12.40;99.90;;;;;;4979923;28;20042;-59
2022/01/04 08:47:31;;;;;;;0.20;0.20;;;12.40;99.90;;;;;;4979483;28;20077;-59
2022/01/04 08:49:57;;;;;;;;;;;12.50;99.90;;;;;;4980028;28;20046;-59
2022/01/04 08:52:26;;;;;;;0.52;0.40;;;12.60;99.90;;;;;;4983917;28;19984;-59
2022/01/04 08:54:58;;;;;;;2.65;0.60;;;12.80;99.90;;;;;;4981783;28;20100;-59
2022/01/04 08:57:25;;;;;;;0.70;0.50;;;12.90;99.90;;;;;;4979779;28;20046;-59
2022/01/04 08:59:54;;;;;;;;;;;13.00;99.90;;;;;;4979873;28;20046;-59
2022/01/04 09:02:22;;;;;;;0.75;0.38;;;13.30;99.90;;;;;;4979484;28;19926;-59
2022/01/04 09:04:49;;;;;;;1.05;0.60;;;13.60;99.90;;;;;;4979687;28;20042;-59
2022/01/04 09:07:17;;;;;;;0.63;0.30;;;13.80;99.90;;;;;;4979722;28;20108;-59
2022/01/04 09:09:44;;;;;;;0.30;0.30;;;14.00;99.90;;;;;;4978472;28;20134;-59
2022/01/04 09:12:34;;;;;;;0.38;0.38;;;14.20;99.90;;;;;;4980064;28;20049;-59
2022/01/04 09:15:16;;;;;;;1.45;0.40;;;14.30;99.90;;;;;;4979542;28;20199;-59
2022/01/04 09:20:29;;;;;;;1.10;0.50;;;14.70;99.90;;;;;;4978346;28;20042;-59
2022/01/04 09:22:56;;;;;;;;;;;14.80;99.90;;;;;;4980392;28;20660;-60
2022/01/04 09:25:23;;;;;;;0.77;0.50;;;14.80;99.90;;;;;;4978917;28;19929;-62
2022/01/04 09:27:50;;;;;;;;;;;14.80;99.90;;;;;;4980091;28;20046;-61
2022/01/04 09:30:17;;;;;;;1.05;0.60;;;14.70;99.90;;;;;;4978631;28;20044;-60
2022/01/04 09:32:44;;;;;;;;;;;14.70;99.90;;;;;;4979526;28;20058;-60
2022/01/04 09:35:12;;;;;;;1.38;0.52;;;14.70;99.90;;;;;;4978819;28;19980;-58
2022/01/04 09:37:39;;;;;;;0.50;0.47;;;14.70;99.10;;;;;;4978727;28;20053;-59
2022/01/04 09:40:08;;;;;;;1.33;0.43;;;14.70;99.20;;;;;;4978538;28;20042;-57
2022/01/04 09:42:37;;;;;;;1.67;0.60;;;14.70;99.80;;;;;;4979034;28;20038;-58
2022/01/04 09:45:05;;;;;;;0.63;0.57;;;14.80;99.50;;;;;;4993056;28;20042;-57
2022/01/04 09:47:33;;;;;;;0.50;0.50;;;14.80;98.70;;;;;;4978674;28;20050;-57
2022/01/04 09:50:00;;;;;;;0.90;0.57;;;14.80;98.10;;;;;;4978225;28;20842;-57
2022/01/04 09:52:33;;;;;;;0.50;0.50;;;14.90;98.60;;;;;;4983729;28;20128;-57
2022/01/04 09:54:59;;;;;;;0.70;0.68;;;14.90;97.40;;;;;;4980302;28;20054;-67
2022/01/04 09:57:26;;;;;;;;;;;14.90;96.80;;;;;;4979677;28;20066;-58
2022/01/04 09:59:53;;;;;;;0.50;0.50;;;14.90;97.00;;;;;;4978675;28;19933;-58
2022/01/04 10:02:21;;;;;;;1.20;0.70;;;14.90;96.30;;;;;;4978907;28;20598;-58
2022/01/04 10:04:48;;;;;;;0.60;0.40;;;14.90;96.20;;;;;;4978484;28;20061;-58
2022/01/04 10:07:19;;;;;;;;;;;14.90;96.00;;;;;;4979310;28;20058;-58
2022/01/04 10:09:48;;;;;;;2.42;0.90;;;15.00;95.90;;;;;;4977184;28;19984;-59
2022/01/04 10:12:21;;;;;;;1.58;0.85;;;15.10;95.80;;;;;;4978943;28;20686;-58
2022/01/04 10:14:52;;;;;;;1.35;0.60;;;15.30;95.20;;;;;;4978119;28;20046;-58
2022/01/04 10:17:28;;;;;;;1.30;0.77;;;15.40;94.70;;;;;;4978486;28;20042;-58
2022/01/04 10:19:58;;;;;;;0.80;0.45;;;15.50;94.10;;;;;;4977600;28;20719;-58
2022/01/04 10:22:28;;;;;;;1.55;0.70;;;15.50;93.60;;;;;;4978770;28;20050;-58
2022/01/04 10:25:01;;;;;;;3.47;0.88;;;15.50;93.60;;;;;;4977961;28;20141;-59
2022/01/04 10:27:43;;;;;;;1.27;0.70;;;15.60;93.60;;;;;;4979131;28;20042;-58
2022/01/04 10:30:32;;;;;;;1.85;0.73;;;15.80;93.70;;;;;;4977587;28;20046;-56
2022/01/04 10:33:07;;;;;;;1.40;0.70;;;16.00;92.30;;;;;;4978788;28;20050;-56
2022/01/04 10:35:38;;;;;;;1.88;0.73;;;16.10;91.50;;;;;;4978526;28;20046;-55
2022/01/04 10:38:21;;;;;;;0.98;0.60;;;16.10;90.40;;;;;;4978566;28;20050;-55
2022/01/04 10:40:58;;;;;;;3.65;1.00;;;16.10;89.60;;;;;;4978380;28;20049;-56
2022/01/04 10:43:48;;;;;;;11.07;1.23;;;16.00;90.00;;;;;;4978891;28;20045;-55
2022/01/04 10:46:30;;;;;;;0.93;0.63;;;15.90;90.10;;;;;;4977622;28;20613;-55
2022/01/04 10:48:57;;;;;;;0.77;0.73;;;15.90;90.20;;;;;;4976736;28;20053;-54
2022/01/04 10:51:26;;;;;;;0.88;0.70;;;15.80;90.40;;;;;;4978011;28;20276;-57
2022/01/04 10:54:00;;;;;;;0.85;0.60;;;15.70;88.80;;;;;;4984570;28;20046;-57
2022/01/04 10:56:31;;;;;;;4.57;0.82;;;15.70;88.80;;;;;;4977733;28;20050;-56
2022/01/04 10:59:01;;;;;;;1.83;0.77;;;15.70;90.00;;;;;;4976937;28;20046;-57
2022/01/04 11:01:30;;;;;;;1.35;0.90;;;15.60;89.20;;;;;;4977094;28;20050;-57
2022/01/04 11:04:00;;;;;;;2.10;0.75;;;15.70;90.50;;;;;;4977466;28;20054;-57
2022/01/04 11:06:31;;;;;;;0.60;0.60;;;15.60;90.50;;;;;;4977949;28;20058;-57
2022/01/04 11:08:58;;;;;;;1.38;0.80;;;15.70;88.70;;;;;;4976663;28;20095;-57
2022/01/04 11:11:26;;;;;;;0.68;0.68;;;15.70;87.90;;;;;;4977285;28;20047;-57
2022/01/04 11:13:53;;;;;;;0.55;0.55;;;15.70;90.10;;;;;;4977321;28;20042;-57
2022/01/04 11:16:25;;;;;;;1.05;0.77;;;15.80;88.90;;;;;;4976831;28;20503;-57
2022/01/04 11:18:54;;;;;;;2.05;1.23;;;15.90;88.60;;;;;;4976377;28;20049;-57
2022/01/04 11:21:32;;;;;;;4.25;1.08;;;16.00;88.60;;;;;;4976813;28;20050;-57
2022/01/04 11:24:01;;;;;;;2.17;0.75;;;16.10;89.10;;;;;;4976717;28;20054;-57
2022/01/04 11:26:28;;;;;;;1.23;1.08;;;16.30;87.50;;;;;;4976940;28;20074;-58
2022/01/04 11:28:56;;;;;;;0.68;0.60;;;16.50;88.70;;;;;;4976494;28;20046;-57
2022/01/04 11:31:35;;;;;;;1.15;0.57;;;16.70;83.70;;;;;;4976963;28;20042;-58
2022/01/04 11:34:11;;;;;;;0.70;0.70;;;17.00;82.30;;;;;;4976556;28;20690;-57
2022/01/04 11:36:46;;;;;;;1.70;0.67;;;17.10;81.10;;;;;;4976823;28;20049;-57
2022/01/04 11:39:31;;;;;;;0.60;0.60;;;17.10;79.10;;;;;;4975925;28;20489;-57
2022/01/04 11:42:04;;;;;;;0.80;0.63;;;17.00;77.00;;;;;;4977229;28;20050;-57
2022/01/04 11:44:32;;;;;;;2.42;0.57;;;16.90;77.00;;;;;;4975965;28;20054;-57
2022/01/04 11:47:15;;;;;;;0.93;0.88;;;16.80;77.20;;;;;;4977523;28;20053;-57
2022/01/04 11:50:17;;;;;;;0.93;0.93;;;16.80;76.40;;;;;;4973830;28;20048;-57
2022/01/04 11:52:49;;;;;;;0.90;0.70;;;16.80;77.30;;;;;;4975917;28;20038;-57
2022/01/04 11:55:32;;;;;;;0.90;0.85;;;16.80;74.70;;;;;;4995429;28;20540;-57
2022/01/04 11:58:03;;;;;;;0.68;0.68;;;16.90;76.30;;;;;;4996599;28;20707;-57
2022/01/04 12:00:37;;;;;;;0.73;0.60;;;16.90;74.00;;;;;;4995179;28;20054;-58
2022/01/04 12:03:11;;;;;;;1.92;0.70;;;17.00;74.20;;;;;;4996378;28;20501;-58
2022/01/04 12:05:56;;;;;;;0.95;0.60;;;17.20;72.10;;;;;;4995417;28;20050;-58
2022/01/04 12:08:34;;;;;;;1.35;0.70;;;17.40;70.90;;;;;;4997708;28;20085;-58
2022/01/04 12:11:24;;;;;;;0.77;0.63;;;17.50;71.50;;;;;;4999320;28;20092;-58
2022/01/04 12:13:53;;;;;;;3.03;0.60;;;17.70;69.80;;;;;;4999905;28;20042;-58
2022/01/04 12:16:32;;;;;;;0.80;0.65;;;17.70;68.90;;;;;;5000007;28;20058;-58
2022/01/04 12:19:01;;;;;;;1.52;0.77;;;17.60;69.30;;;;;;4994534;28;20042;-58
2022/01/04 12:21:31;;;;;;;0.47;0.47;;;17.50;69.40;;;;;;4980291;28;20101;-58
2022/01/04 12:23:59;;;;;;;2.00;0.68;;;17.50;68.40;;;;;;4980308;28;20038;-58
2022/01/04 12:26:28;;;;;;;1.45;0.70;;;17.60;70.00;;;;;;4980854;28;20054;-58
2022/01/04 12:28:55;;;;;;;0.93;0.50;;;17.60;68.90;;;;;;4979485;28;20034;-58
2022/01/04 12:31:26;;;;;;;1.15;0.65;;;17.60;68.60;;;;;;4980256;28;20042;-58
2022/01/04 12:34:05;;;;;;;0.60;0.52;;;17.60;69.60;;;;;;4994879;28;20119;-58
2022/01/04 12:36:41;;;;;;;0.57;0.45;;;17.60;69.70;;;;;;4980172;28;20042;-58
2022/01/04 12:39:17;;;;;;;0.47;0.47;;;17.60;69.90;;;;;;4977690;28;20057;-58
2022/01/04 12:41:46;;;;;;;1.15;0.55;;;17.60;70.80;;;;;;4980105;28;20644;-58
2022/01/04 12:44:21;;;;;;;2.10;0.60;;;17.50;71.10;;;;;;4979181;28;20074;-58
2022/01/04 12:46:48;;;;;;;0.90;0.68;;;17.50;71.70;;;;;;4980332;28;20835;-58
2022/01/04 12:49:17;;;;;;;1.90;0.63;;;17.40;72.70;;;;;;4979502;28;20050;-58
2022/01/04 12:51:50;;;;;;;3.30;0.68;;;17.30;73.60;;;;;;4978817;28;20517;-58
2022/01/04 12:54:19;;;;;;;1.00;0.60;;;17.10;73.60;;;;;;4987213;28;20050;-58
2022/01/04 12:57:04;;;;;;;1.42;0.70;;;17.00;75.40;;;;;;4979452;28;20145;-58
2022/01/04 12:59:46;;;;;;;1.88;0.90;;;16.80;77.20;;;;;;4978358;28;20054;-58
2022/01/04 13:02:14;;;;;;;1.23;0.70;;;16.70;75.90;;;;;;4979661;28;20058;-58
2022/01/04 13:04:45;;;;;;;1.40;0.80;;;16.60;75.20;;;;;;4979350;28;20048;-57
2022/01/04 13:07:32;;;;;;;2.13;1.08;;;16.50;76.10;;;;;;4978890;28;20492;-57
2022/01/04 13:10:00;;;;;;;1.75;1.00;;;16.30;78.30;;;;;;4978846;28;20049;-58
2022/01/04 13:12:35;;;;;;;1.77;0.63;;;16.20;78.40;;;;;;4979032;28;20588;-58
2022/01/04 13:15:05;;;;;;;1.05;0.73;;;16.20;76.60;;;;;;4978760;28;20038;-57
2022/01/04 13:17:32;;;;;;;3.78;0.88;;;16.20;75.90;;;;;;4978895;28;20046;-56
2022/01/04 13:19:59;;;;;;;0.88;0.55;;;16.20;75.30;;;;;;4977571;28;20038;-57
2022/01/04 13:22:28;;;;;;;0.60;0.60;;;16.30;76.20;;;;;;4978248;28;20803;-57
2022/01/04 13:25:01;;;;;;;3.22;0.73;;;16.40;77.40;;;;;;4978253;28;20555;-57